createdAt,value
2016-12-21T00:00:57.482Z,0
2016-12-21T00:01:57.141Z,0
2016-12-21T00:02:56.792Z,0
2016-12-21T00:03:56.748Z,0
2016-12-21T00:04:57.007Z,0
2016-12-21T00:05:56.966Z,0
2016-12-21T00:06:57.224Z,0
2016-12-21T00:07:56.884Z,0
2016-12-21T00:08:57.141Z,0
2016-12-21T00:09:56.832Z,0
2016-12-21T00:10:57.056Z,0
2016-12-21T00:11:56.716Z,0
2016-12-21T00:12:56.970Z,0
2016-12-21T00:13:56.962Z,0
2016-12-21T00:14:56.592Z,0
2016-12-21T00:15:56.844Z,0
2016-12-21T00:16:56.201Z,0
2016-12-21T00:17:56.779Z,0
2016-12-21T00:18:56.416Z,0
2016-12-21T00:19:56.687Z,0
2016-12-21T00:20:56.335Z,0
2016-12-21T00:21:56.591Z,0
2016-12-21T00:22:56.551Z,0
2016-12-21T00:23:56.235Z,0
2016-12-21T00:24:56.467Z,0
2016-12-21T00:25:56.448Z,0
2016-12-21T00:26:55.779Z,0
2016-12-21T00:27:56.341Z,0
2016-12-21T00:28:55.999Z,0
2016-12-21T00:29:56.253Z,0
2016-12-21T00:30:55.608Z,0
2016-12-21T00:31:56.169Z,0
2016-12-21T00:32:55.828Z,0
2016-12-21T00:33:55.487Z,0
2016-12-21T00:34:55.742Z,0
2016-12-21T00:35:55.702Z,0
2016-12-21T00:36:55.656Z,0
2016-12-21T00:37:55.918Z,0
2016-12-21T00:38:55.270Z,0
2016-12-21T00:39:55.531Z,0
2016-12-21T00:40:55.486Z,0
2016-12-21T00:41:55.752Z,0
2016-12-21T00:42:55.707Z,0
2016-12-21T00:43:55.357Z,0
2016-12-21T00:44:55.317Z,0
2016-12-21T00:45:55.286Z,0
2016-12-21T00:46:55.529Z,0
2016-12-21T00:47:55.215Z,0
2016-12-21T00:48:55.453Z,0
2016-12-21T00:49:54.804Z,0
2016-12-21T00:50:54.767Z,0
2016-12-21T00:51:55.019Z,0
2016-12-21T00:52:54.990Z,0
2016-12-21T00:53:54.937Z,0
2016-12-21T00:54:54.895Z,0
2016-12-21T00:55:54.854Z,0
2016-12-21T00:56:54.811Z,0
2016-12-21T00:57:54.765Z,0
2016-12-21T00:58:54.121Z,0
2016-12-21T00:59:54.989Z,0
2016-12-21T01:00:54.341Z,0
2016-12-21T01:01:53.999Z,0
2016-12-21T01:02:54.859Z,0
2016-12-21T01:03:53.910Z,0
2016-12-21T01:04:54.474Z,0
2016-12-21T01:05:54.131Z,0
2016-12-21T01:06:54.686Z,0
2016-12-21T01:07:54.343Z,0
2016-12-21T01:08:54.001Z,0
2016-12-21T01:09:54.561Z,0
2016-12-21T01:10:53.915Z,0
2016-12-21T01:11:53.881Z,0
2016-12-21T01:12:53.831Z,0
2016-12-21T01:13:54.399Z,0
2016-12-21T01:14:53.746Z,0
2016-12-21T01:15:53.704Z,0
2016-12-21T01:16:53.962Z,0
2016-12-21T01:17:53.930Z,0
2016-12-21T01:18:54.189Z,0
2016-12-21T01:19:53.835Z,0
2016-12-21T01:20:54.096Z,0
2016-12-21T01:21:53.750Z,0
2016-12-21T01:22:53.707Z,0
2016-12-21T01:23:53.666Z,0
2016-12-21T01:24:53.627Z,0
2016-12-21T01:25:53.280Z,0
2016-12-21T01:26:53.541Z,0
2016-12-21T01:27:53.195Z,0
2016-12-21T01:28:53.148Z,0
2016-12-21T01:29:53.416Z,0
2016-12-21T01:30:53.670Z,0
2016-12-21T01:31:53.025Z,0
2016-12-21T01:32:53.291Z,0
2016-12-21T01:33:53.241Z,0
2016-12-21T01:34:53.198Z,0
2016-12-21T01:35:53.159Z,0
2016-12-21T01:36:53.422Z,0
2016-12-21T01:37:53.075Z,0
2016-12-21T01:38:53.033Z,0
2016-12-21T01:39:52.992Z,0
2016-12-21T01:40:53.259Z,0
2016-12-21T01:41:53.204Z,0
2016-12-21T01:42:53.164Z,0
2016-12-21T01:43:52.516Z,0
2016-12-21T01:44:53.075Z,0
2016-12-21T01:45:52.740Z,0
2016-12-21T01:46:53.031Z,0
2016-12-21T01:47:52.348Z,0
2016-12-21T01:48:52.910Z,0
2016-12-21T01:49:52.261Z,0
2016-12-21T01:50:52.530Z,0
2016-12-21T01:51:52.793Z,0
2016-12-21T01:52:52.141Z,0
2016-12-21T01:53:52.698Z,0
2016-12-21T01:54:52.050Z,0
2016-12-21T01:55:52.610Z,0
2016-12-21T01:56:52.573Z,0
2016-12-21T01:57:52.531Z,0
2016-12-21T01:58:52.482Z,0
2016-12-21T01:59:52.146Z,0
2016-12-21T02:00:52.103Z,0
2016-12-21T02:01:52.072Z,0
2016-12-21T02:02:51.722Z,0
2016-12-21T02:03:52.272Z,0
2016-12-21T02:04:51.960Z,0
2016-12-21T02:05:51.920Z,0
2016-12-21T02:06:51.844Z,0
2016-12-21T02:07:51.499Z,0
2016-12-21T02:08:51.493Z,0
2016-12-21T02:09:51.722Z,0
2016-12-21T02:10:51.681Z,0
2016-12-21T02:11:51.635Z,0
2016-12-21T02:12:51.594Z,0
2016-12-21T02:13:51.846Z,0
2016-12-21T02:14:51.510Z,0
2016-12-21T02:15:51.477Z,0
2016-12-21T02:16:51.726Z,0
2016-12-21T02:17:51.678Z,0
2016-12-21T02:18:51.334Z,0
2016-12-21T02:19:51.598Z,0
2016-12-21T02:20:50.648Z,0
2016-12-21T02:21:51.211Z,0
2016-12-21T02:22:51.170Z,0
2016-12-21T02:23:51.124Z,0
2016-12-21T02:24:50.182Z,0
2016-12-21T02:25:51.343Z,0
2016-12-21T02:26:51.293Z,0
2016-12-21T02:27:50.651Z,0
2016-12-21T02:28:51.207Z,0
2016-12-21T02:29:51.168Z,0
2016-12-21T02:30:51.123Z,0
2016-12-21T02:31:50.782Z,0
2016-12-21T02:32:50.737Z,0
2016-12-21T02:33:50.997Z,0
2016-12-21T02:34:50.652Z,0
2016-12-21T02:35:50.606Z,0
2016-12-21T02:36:50.871Z,0
2016-12-21T02:37:50.837Z,0
2016-12-21T02:38:50.789Z,0
2016-12-21T02:39:50.450Z,0
2016-12-21T02:40:50.704Z,0
2016-12-21T02:41:50.357Z,0
2016-12-21T02:42:50.311Z,0
2016-12-21T02:43:50.576Z,0
2016-12-21T02:44:49.934Z,0
2016-12-21T02:45:50.187Z,0
2016-12-21T02:46:50.447Z,0
2016-12-21T02:47:50.102Z,0
2016-12-21T02:48:50.062Z,0
2016-12-21T02:49:50.321Z,0
2016-12-21T02:50:50.276Z,0
2016-12-21T02:51:50.235Z,0
2016-12-21T02:52:50.192Z,0
2016-12-21T02:53:50.153Z,0
2016-12-21T02:54:50.101Z,0
2016-12-21T02:55:49.792Z,0
2016-12-21T02:56:50.029Z,0
2016-12-21T02:57:49.376Z,0
2016-12-21T02:58:49.938Z,0
2016-12-21T02:59:49.893Z,0
2016-12-21T03:00:49.553Z,0
2016-12-21T03:01:49.811Z,0
2016-12-21T03:02:49.770Z,0
2016-12-21T03:03:49.422Z,0
2016-12-21T03:04:49.379Z,0
2016-12-21T03:05:49.636Z,0
2016-12-21T03:06:49.294Z,0
2016-12-21T03:07:49.257Z,0
2016-12-21T03:08:49.210Z,0
2016-12-21T03:09:49.182Z,0
2016-12-21T03:10:49.430Z,0
2016-12-21T03:11:48.479Z,0
2016-12-21T03:12:48.746Z,0
2016-12-21T03:13:49.303Z,0
2016-12-21T03:14:48.955Z,0
2016-12-21T03:15:48.914Z,0
2016-12-21T03:16:48.873Z,0
2016-12-21T03:17:48.828Z,0
2016-12-21T03:18:48.182Z,0
2016-12-21T03:19:48.753Z,0
2016-12-21T03:20:48.997Z,0
2016-12-21T03:21:48.959Z,0
2016-12-21T03:22:48.313Z,0
2016-12-21T03:23:48.268Z,0
2016-12-21T03:24:47.928Z,0
2016-12-21T03:25:48.790Z,0
2016-12-21T03:26:48.456Z,0
2016-12-21T03:27:48.397Z,0
2016-12-21T03:28:48.664Z,0
2016-12-21T03:29:48.616Z,0
2016-12-21T03:30:48.578Z,0
2016-12-21T03:31:48.557Z,0
2016-12-21T03:32:48.488Z,0
2016-12-21T03:33:48.447Z,0
2016-12-21T03:34:48.403Z,0
2016-12-21T03:35:48.053Z,0
2016-12-21T03:36:48.318Z,0
2016-12-21T03:37:47.975Z,0
2016-12-21T03:38:47.930Z,0
2016-12-21T03:39:47.893Z,0
2016-12-21T03:40:47.847Z,0
2016-12-21T03:41:47.808Z,0
2016-12-21T03:42:47.757Z,0
2016-12-21T03:43:47.724Z,0
2016-12-21T03:44:47.373Z,0
2016-12-21T03:45:47.937Z,0
2016-12-21T03:46:47.291Z,0
2016-12-21T03:47:47.244Z,0
2016-12-21T03:48:46.903Z,0
2016-12-21T03:49:47.464Z,0
2016-12-21T03:50:47.420Z,0
2016-12-21T03:51:47.680Z,0
2016-12-21T03:52:47.649Z,0
2016-12-21T03:53:46.990Z,0
2016-12-21T03:54:47.250Z,0
2016-12-21T03:55:47.211Z,0
2016-12-21T03:56:46.868Z,0
2016-12-21T03:57:47.144Z,0
2016-12-21T03:58:47.083Z,0
2016-12-21T03:59:47.042Z,0
2016-12-21T04:00:47.025Z,0
2016-12-21T04:01:46.984Z,0
2016-12-21T04:02:46.908Z,0
2016-12-21T04:03:47.174Z,0
2016-12-21T04:04:47.126Z,0
2016-12-21T04:05:47.084Z,0
2016-12-21T04:06:47.043Z,0
2016-12-21T04:07:46.995Z,0
2016-12-21T04:08:46.958Z,0
2016-12-21T04:09:46.612Z,0
2016-12-21T04:10:46.271Z,0
2016-12-21T04:11:46.827Z,0
2016-12-21T04:12:46.486Z,0
2016-12-21T04:13:46.144Z,0
2016-12-21T04:14:46.711Z,0
2016-12-21T04:15:46.660Z,0
2016-12-21T04:16:46.018Z,0
2016-12-21T04:17:46.273Z,0
2016-12-21T04:18:46.254Z,0
2016-12-21T04:19:46.488Z,0
2016-12-21T04:20:46.142Z,0
2016-12-21T04:21:45.804Z,0
2016-12-21T04:22:46.364Z,0
2016-12-21T04:23:46.316Z,0
2016-12-21T04:24:45.973Z,0
2016-12-21T04:25:45.935Z,0
2016-12-21T04:26:45.888Z,0
2016-12-21T04:27:45.545Z,0
2016-12-21T04:28:46.109Z,0
2016-12-21T04:29:45.759Z,0
2016-12-21T04:30:46.014Z,0
2016-12-21T04:31:45.985Z,0
2016-12-21T04:32:45.933Z,0
2016-12-21T04:33:45.893Z,0
2016-12-21T04:34:45.261Z,0
2016-12-21T04:35:45.808Z,0
2016-12-21T04:36:45.775Z,0
2016-12-21T04:37:45.432Z,0
2016-12-21T04:38:45.380Z,0
2016-12-21T04:39:45.034Z,0
2016-12-21T04:40:44.692Z,0
2016-12-21T04:41:45.253Z,0
2016-12-21T04:42:45.510Z,0
2016-12-21T04:43:44.865Z,0
2016-12-21T04:44:45.432Z,0
2016-12-21T04:45:44.476Z,0
2016-12-21T04:46:45.044Z,0
2016-12-21T04:47:44.995Z,0
2016-12-21T04:48:59.258Z,0
2016-12-21T04:49:45.219Z,0
2016-12-21T04:50:44.875Z,0
2016-12-21T04:51:44.830Z,0
2016-12-21T04:52:44.793Z,0
2016-12-21T04:53:45.044Z,0
2016-12-21T04:54:44.700Z,0
2016-12-21T04:55:44.351Z,0
2016-12-21T04:56:44.919Z,0
2016-12-21T04:57:44.266Z,0
2016-12-21T04:58:44.525Z,0
2016-12-21T04:59:44.487Z,0
2016-12-21T05:00:44.745Z,0
2016-12-21T05:01:44.426Z,0
2016-12-21T05:02:44.059Z,0
2016-12-21T05:03:44.315Z,0
2016-12-21T05:04:44.586Z,0
2016-12-21T05:05:43.631Z,0
2016-12-21T05:06:43.878Z,0
2016-12-21T05:07:44.450Z,0
2016-12-21T05:08:43.797Z,0
2016-12-21T05:09:44.058Z,0
2016-12-21T05:10:44.019Z,0
2016-12-21T05:11:44.006Z,0
2016-12-21T05:12:43.633Z,0
2016-12-21T05:13:43.584Z,0
2016-12-21T05:14:44.145Z,0
2016-12-21T05:15:43.803Z,0
2016-12-21T05:16:43.761Z,0
2016-12-21T05:17:44.024Z,0
2016-12-21T05:18:43.983Z,0
2016-12-21T05:19:43.933Z,0
2016-12-21T05:20:43.589Z,0
2016-12-21T05:21:43.545Z,0
2016-12-21T05:22:43.807Z,0
2016-12-21T05:23:43.153Z,0
2016-12-21T05:24:43.122Z,0
2016-12-21T05:25:43.679Z,0
2016-12-21T05:26:43.331Z,0
2016-12-21T05:27:43.589Z,0
2016-12-21T05:28:43.250Z,0
2016-12-21T05:29:43.205Z,0
2016-12-21T05:30:43.161Z,0
2016-12-21T05:31:43.124Z,0
2016-12-21T05:32:42.783Z,0
2016-12-21T05:33:43.345Z,0
2016-12-21T05:34:43.297Z,0
2016-12-21T05:35:42.647Z,0
2016-12-21T05:36:43.212Z,0
2016-12-21T05:37:41.963Z,0
2016-12-21T05:38:42.824Z,0
2016-12-21T05:39:42.480Z,0
2016-12-21T05:40:42.746Z,0
2016-12-21T05:41:42.393Z,0
2016-12-21T05:42:42.958Z,0
2016-12-21T05:43:42.911Z,0
2016-12-21T05:44:42.566Z,0
2016-12-21T05:45:41.924Z,0
2016-12-21T05:46:42.485Z,0
2016-12-21T05:47:42.146Z,0
2016-12-21T05:48:42.697Z,0
2016-12-21T05:49:42.659Z,0
2016-12-21T05:50:42.311Z,0
2016-12-21T05:51:42.272Z,0
2016-12-21T05:52:42.528Z,0
2016-12-21T05:53:42.496Z,0
2016-12-21T05:54:42.464Z,0
2016-12-21T05:55:42.099Z,0
2016-12-21T05:56:42.354Z,0
2016-12-21T05:57:42.006Z,0
2016-12-21T05:58:41.665Z,0
2016-12-21T05:59:42.226Z,0
2016-12-21T06:00:42.196Z,0
2016-12-21T06:01:41.850Z,0
2016-12-21T06:02:42.113Z,0
2016-12-21T06:03:42.080Z,0
2016-12-21T06:04:41.717Z,0
2016-12-21T06:05:41.672Z,0
2016-12-21T06:06:41.325Z,0
2016-12-21T06:07:41.592Z,0
2016-12-21T06:08:41.841Z,0
2016-12-21T06:09:41.494Z,0
2016-12-21T06:10:41.458Z,0
2016-12-21T06:11:41.416Z,0
2016-12-21T06:12:41.076Z,0
2016-12-21T06:13:41.032Z,0
2016-12-21T06:14:41.291Z,0
2016-12-21T06:15:41.545Z,0
2016-12-21T06:16:41.511Z,0
2016-12-21T06:17:41.158Z,0
2016-12-21T06:18:41.420Z,0
2016-12-21T06:19:40.469Z,0
2016-12-21T06:20:41.028Z,0
2016-12-21T06:21:41.292Z,0
2016-12-21T06:22:41.250Z,0
2016-12-21T06:23:41.206Z,0
2016-12-21T06:24:40.566Z,0
2016-12-21T06:25:40.522Z,0
2016-12-21T06:26:40.474Z,0
2016-12-21T06:27:40.732Z,0
2016-12-21T06:28:40.689Z,0
2016-12-21T06:29:40.645Z,0
2016-12-21T06:30:40.898Z,0
2016-12-21T06:31:40.560Z,0
2016-12-21T06:32:40.844Z,0
2016-12-21T06:33:40.474Z,0
2016-12-21T06:34:40.134Z,0
2016-12-21T06:35:40.403Z,0
2016-12-21T06:36:40.350Z,0
2016-12-21T06:37:40.617Z,0
2016-12-21T06:38:40.298Z,0
2016-12-21T06:39:40.218Z,0
2016-12-21T06:40:39.893Z,0
2016-12-21T06:41:39.532Z,0
2016-12-21T06:42:40.095Z,0
2016-12-21T06:43:39.789Z,0
2016-12-21T06:44:40.008Z,0
2016-12-21T06:45:40.267Z,0
2016-12-21T06:46:39.319Z,0
2016-12-21T06:47:39.881Z,0
2016-12-21T06:48:39.876Z,0
2016-12-21T06:49:40.100Z,0
2016-12-21T06:50:40.068Z,0
2016-12-21T06:51:39.712Z,0
2016-12-21T06:52:39.972Z,0
2016-12-21T06:53:39.927Z,0
2016-12-21T06:54:39.879Z,0
2016-12-21T06:55:39.843Z,0
2016-12-21T06:56:39.505Z,0
2016-12-21T06:57:39.454Z,0
2016-12-21T06:58:39.436Z,0
2016-12-21T06:59:39.676Z,0
2016-12-21T07:00:39.627Z,0
2016-12-21T07:01:39.288Z,0
2016-12-21T07:02:39.552Z,0
2016-12-21T07:03:39.202Z,0
2016-12-21T07:04:38.861Z,0
2016-12-21T07:05:39.121Z,0
2016-12-21T07:06:39.380Z,0
2016-12-21T07:07:39.338Z,0
2016-12-21T07:08:38.685Z,0
2016-12-21T07:09:39.246Z,0
2016-12-21T07:10:39.208Z,0
2016-12-21T07:11:38.560Z,0
2016-12-21T07:12:39.120Z,0
2016-12-21T07:13:38.169Z,0
2016-12-21T07:14:39.027Z,0
2016-12-21T07:15:38.687Z,0
2016-12-21T07:16:38.646Z,0
2016-12-21T07:17:38.902Z,0
2016-12-21T07:18:37.958Z,0
2016-12-21T07:19:38.521Z,0
2016-12-21T07:20:38.174Z,0
2016-12-21T07:21:38.740Z,5
2016-12-21T07:22:38.386Z,5
2016-12-21T07:23:38.345Z,5
2016-12-21T07:24:38.609Z,5
2016-12-21T07:25:38.563Z,5
2016-12-21T07:26:38.523Z,5
2016-12-21T07:27:38.483Z,5
2016-12-21T07:28:37.840Z,5
2016-12-21T07:29:38.091Z,5
2016-12-21T07:30:38.050Z,5
2016-12-21T07:31:38.008Z,5
2016-12-21T07:32:37.667Z,5
2016-12-21T07:33:38.224Z,5
2016-12-21T07:34:37.878Z,5
2016-12-21T07:35:37.836Z,5
2016-12-21T07:36:37.489Z,10
2016-12-21T07:37:37.752Z,10
2016-12-21T07:38:37.718Z,10
2016-12-21T07:39:37.675Z,10
2016-12-21T07:40:37.925Z,10
2016-12-21T07:41:37.585Z,10
2016-12-21T07:42:37.540Z,10
2016-12-21T07:43:37.195Z,10
2016-12-21T07:44:37.460Z,10
2016-12-21T07:45:37.415Z,10
2016-12-21T07:46:37.373Z,10
2016-12-21T07:47:37.627Z,15
2016-12-21T07:48:37.583Z,15
2016-12-21T07:49:37.239Z,15
2016-12-21T07:50:37.202Z,15
2016-12-21T07:51:37.160Z,15
2016-12-21T07:52:37.117Z,15
2016-12-21T07:53:37.068Z,15
2016-12-21T07:54:36.724Z,15
2016-12-21T07:55:36.992Z,15
2016-12-21T07:56:36.941Z,20
2016-12-21T07:57:37.213Z,20
2016-12-21T07:58:37.163Z,20
2016-12-21T07:59:36.517Z,20
2016-12-21T08:00:36.778Z,20
2016-12-21T08:01:36.731Z,20
2016-12-21T08:02:36.692Z,20
2016-12-21T08:03:36.649Z,15
2016-12-21T08:04:36.303Z,20
2016-12-21T08:05:36.863Z,20
2016-12-21T08:06:35.915Z,20
2016-12-21T08:07:36.783Z,20
2016-12-21T08:08:36.737Z,20
2016-12-21T08:09:36.396Z,20
2016-12-21T08:10:36.650Z,20
2016-12-21T08:11:36.614Z,20
2016-12-21T08:12:36.267Z,25
2016-12-21T08:13:35.948Z,25
2016-12-21T08:14:36.185Z,25
2016-12-21T08:15:36.439Z,25
2016-12-21T08:16:35.494Z,25
2016-12-21T08:17:35.755Z,25
2016-12-21T08:18:35.710Z,25
2016-12-21T08:19:36.276Z,30
2016-12-21T08:20:36.231Z,30
2016-12-21T08:21:35.889Z,25
2016-12-21T08:22:36.142Z,30
2016-12-21T08:23:35.801Z,30
2016-12-21T08:24:35.451Z,30
2016-12-21T08:25:36.018Z,30
2016-12-21T08:26:35.675Z,30
2016-12-21T08:27:35.627Z,35
2016-12-21T08:28:35.287Z,35
2016-12-21T08:29:34.941Z,35
2016-12-21T08:30:35.802Z,30
2016-12-21T08:31:35.465Z,35
2016-12-21T08:32:35.115Z,35
2016-12-21T08:33:35.680Z,35
2016-12-21T08:34:35.334Z,35
2016-12-21T08:35:34.990Z,35
2016-12-21T08:36:35.586Z,35
2016-12-21T08:37:35.200Z,35
2016-12-21T08:38:34.861Z,35
2016-12-21T08:39:34.518Z,35
2016-12-21T08:40:35.385Z,35
2016-12-21T08:41:35.036Z,35
2016-12-21T08:42:34.394Z,35
2016-12-21T08:43:34.347Z,40
2016-12-21T08:44:34.933Z,40
2016-12-21T08:45:34.870Z,40
2016-12-21T08:46:35.130Z,40
2016-12-21T08:47:34.482Z,40
2016-12-21T08:48:34.128Z,40
2016-12-21T08:49:34.706Z,40
2016-12-21T08:50:34.956Z,40
2016-12-21T08:51:34.318Z,40
2016-12-21T08:52:34.869Z,45
2016-12-21T08:53:33.924Z,45
2016-12-21T08:54:34.482Z,45
2016-12-21T08:55:34.750Z,40
2016-12-21T08:56:34.708Z,40
2016-12-21T08:57:34.356Z,40
2016-12-21T08:58:34.340Z,40
2016-12-21T08:59:34.272Z,45
2016-12-21T09:00:34.229Z,45
2016-12-21T09:01:34.491Z,45
2016-12-21T09:02:33.848Z,45
2016-12-21T09:03:33.812Z,45
2016-12-21T09:04:34.392Z,50
2016-12-21T09:05:34.022Z,50
2016-12-21T09:06:33.987Z,50
2016-12-21T09:07:34.247Z,50
2016-12-21T09:08:34.187Z,50
2016-12-21T09:09:33.859Z,50
2016-12-21T09:10:33.509Z,50
2016-12-21T09:11:33.771Z,50
2016-12-21T09:12:32.819Z,50
2016-12-21T09:13:33.684Z,50
2016-12-21T09:14:33.336Z,50
2016-12-21T09:15:33.901Z,50
2016-12-21T09:16:33.855Z,50
2016-12-21T09:17:33.823Z,50
2016-12-21T09:18:33.780Z,50
2016-12-21T09:19:32.832Z,50
2016-12-21T09:20:33.086Z,50
2016-12-21T09:21:33.349Z,50
2016-12-21T09:22:33.346Z,50
2016-12-21T09:23:32.962Z,50
2016-12-21T09:24:32.623Z,55
2016-12-21T09:25:33.176Z,55
2016-12-21T09:26:33.432Z,55
2016-12-21T09:27:32.795Z,55
2016-12-21T09:28:33.356Z,55
2016-12-21T09:29:33.311Z,55
2016-12-21T09:30:33.272Z,55
2016-12-21T09:31:33.235Z,55
2016-12-21T09:32:32.912Z,55
2016-12-21T09:33:32.846Z,55
2016-12-21T09:34:33.105Z,55
2016-12-21T09:35:33.056Z,55
2016-12-21T09:36:32.710Z,55
2016-12-21T09:37:32.372Z,55
2016-12-21T09:38:32.330Z,55
2016-12-21T09:39:32.604Z,60
2016-12-21T09:40:31.952Z,60
2016-12-21T09:41:32.808Z,60
2016-12-21T09:42:32.765Z,60
2016-12-21T09:43:32.425Z,65
2016-12-21T09:44:32.382Z,65
2016-12-21T09:45:32.651Z,65
2016-12-21T09:46:32.608Z,60
2016-12-21T09:47:32.256Z,65
2016-12-21T09:48:32.511Z,65
2016-12-21T09:49:31.896Z,65
2016-12-21T09:50:31.532Z,65
2016-12-21T09:51:32.394Z,65
2016-12-21T09:52:32.347Z,65
2016-12-21T09:53:32.312Z,70
2016-12-21T09:54:31.658Z,70
2016-12-21T09:55:32.234Z,70
2016-12-21T09:56:32.186Z,70
2016-12-21T09:57:32.146Z,70
2016-12-21T09:58:31.793Z,70
2016-12-21T09:59:31.757Z,70
2016-12-21T10:00:31.418Z,70
2016-12-21T10:01:31.678Z,75
2016-12-21T10:02:31.630Z,75
2016-12-21T10:03:31.599Z,80
2016-12-21T10:04:31.856Z,75
2016-12-21T10:05:31.503Z,75
2016-12-21T10:06:31.463Z,75
2016-12-21T10:07:31.723Z,70
2016-12-21T10:08:31.379Z,70
2016-12-21T10:09:31.341Z,75
2016-12-21T10:10:30.694Z,75
2016-12-21T10:11:31.551Z,75
2016-12-21T10:12:30.916Z,70
2016-12-21T10:13:30.862Z,75
2016-12-21T10:14:31.435Z,75
2016-12-21T10:15:31.094Z,75
2016-12-21T10:16:30.749Z,75
2016-12-21T10:17:31.308Z,75
2016-12-21T10:18:30.964Z,75
2016-12-21T10:19:30.650Z,75
2016-12-21T10:20:30.572Z,75
2016-12-21T10:21:30.544Z,75
2016-12-21T10:22:30.814Z,75
2016-12-21T10:23:30.757Z,80
2016-12-21T10:24:30.721Z,80
2016-12-21T10:25:30.671Z,80
2016-12-21T10:26:30.638Z,80
2016-12-21T10:27:30.590Z,80
2016-12-21T10:28:30.554Z,80
2016-12-21T10:29:30.509Z,80
2016-12-21T10:30:30.468Z,80
2016-12-21T10:31:30.427Z,80
2016-12-21T10:32:30.085Z,80
2016-12-21T10:33:30.348Z,80
2016-12-21T10:34:29.392Z,85
2016-12-21T10:35:30.260Z,85
2016-12-21T10:36:30.523Z,85
2016-12-21T10:37:30.479Z,85
2016-12-21T10:38:30.432Z,85
2016-12-21T10:39:30.398Z,85
2016-12-21T10:40:30.054Z,85
2016-12-21T10:41:30.015Z,85
2016-12-21T10:42:29.971Z,95
2016-12-21T10:43:29.938Z,95
2016-12-21T10:44:29.582Z,90
2016-12-21T10:45:30.150Z,90
2016-12-21T10:46:29.803Z,90
2016-12-21T10:47:30.068Z,90
2016-12-21T10:48:30.058Z,85
2016-12-21T10:49:29.386Z,85
2016-12-21T10:50:29.969Z,85
2016-12-21T10:51:29.310Z,85
2016-12-21T10:52:29.556Z,80
2016-12-21T10:53:29.822Z,85
2016-12-21T10:54:29.502Z,85
2016-12-21T10:55:29.455Z,90
2016-12-21T10:56:29.091Z,90
2016-12-21T10:57:29.361Z,90
2016-12-21T10:58:29.314Z,85
2016-12-21T10:59:29.266Z,85
2016-12-21T11:00:29.544Z,85
2016-12-21T11:01:29.487Z,85
2016-12-21T11:02:29.147Z,85
2016-12-21T11:03:29.103Z,85
2016-12-21T11:04:29.057Z,90
2016-12-21T11:05:28.716Z,90
2016-12-21T11:06:28.678Z,95
2016-12-21T11:07:28.650Z,95
2016-12-21T11:08:28.292Z,95
2016-12-21T11:09:29.157Z,95
2016-12-21T11:10:28.236Z,95
2016-12-21T11:11:28.470Z,95
2016-12-21T11:12:29.038Z,95
2016-12-21T11:13:28.691Z,95
2016-12-21T11:14:28.344Z,90
2016-12-21T11:15:28.908Z,90
2016-12-21T11:16:28.572Z,95
2016-12-21T11:17:28.223Z,95
2016-12-21T11:18:28.782Z,95
2016-12-21T11:19:28.452Z,95
2016-12-21T11:20:28.405Z,95
2016-12-21T11:21:27.761Z,95
2016-12-21T11:22:28.622Z,95
2016-12-21T11:23:28.584Z,95
2016-12-21T11:24:28.535Z,95
2016-12-21T11:25:28.196Z,95
2016-12-21T11:26:28.461Z,95
2016-12-21T11:27:28.112Z,95
2016-12-21T11:28:28.370Z,95
2016-12-21T11:29:28.332Z,95
2016-12-21T11:30:28.293Z,95
2016-12-21T11:31:27.944Z,95
2016-12-21T11:32:27.907Z,95
2016-12-21T11:33:28.166Z,90
2016-12-21T11:34:28.122Z,90
2016-12-21T11:35:27.778Z,90
2016-12-21T11:36:27.744Z,90
2016-12-21T11:37:27.708Z,90
2016-12-21T11:38:27.356Z,90
2016-12-21T11:39:27.621Z,90
2016-12-21T11:40:27.571Z,90
2016-12-21T11:41:27.834Z,90
2016-12-21T11:42:27.797Z,90
2016-12-21T11:43:27.446Z,90
2016-12-21T11:44:27.720Z,90
2016-12-21T11:45:27.070Z,95
2016-12-21T11:46:27.334Z,95
2016-12-21T11:47:27.590Z,95
2016-12-21T11:48:26.646Z,95
2016-12-21T11:49:26.907Z,95
2016-12-21T11:50:26.867Z,90
2016-12-21T11:51:27.435Z,90
2016-12-21T11:52:27.387Z,90
2016-12-21T11:53:27.349Z,90
2016-12-21T11:54:27.299Z,90
2016-12-21T11:55:26.964Z,95
2016-12-21T11:56:26.920Z,95
2016-12-21T11:57:26.881Z,95
2016-12-21T11:58:27.138Z,100
2016-12-21T11:59:26.824Z,100
2016-12-21T12:00:26.752Z,95
2016-12-21T12:01:26.115Z,90
2016-12-21T12:02:26.376Z,90
2016-12-21T12:03:26.936Z,90
2016-12-21T12:04:26.589Z,90
2016-12-21T12:05:26.244Z,95
2016-12-21T12:06:26.508Z,95
2016-12-21T12:07:26.471Z,100
2016-12-21T12:08:26.128Z,95
2016-12-21T12:09:26.081Z,95
2016-12-21T12:10:26.043Z,95
2016-12-21T12:11:26.607Z,95
2016-12-21T12:12:26.273Z,90
2016-12-21T12:13:26.526Z,85
2016-12-21T12:14:26.481Z,85
2016-12-21T12:15:25.537Z,90
2016-12-21T12:16:25.796Z,90
2016-12-21T12:17:26.355Z,90
2016-12-21T12:18:26.018Z,90
2016-12-21T12:19:25.670Z,90
2016-12-21T12:20:25.638Z,85
2016-12-21T12:21:26.195Z,90
2016-12-21T12:22:26.151Z,90
2016-12-21T12:23:25.805Z,95
2016-12-21T12:24:25.168Z,95
2016-12-21T12:25:25.730Z,90
2016-12-21T12:26:25.991Z,90
2016-12-21T12:27:25.343Z,85
2016-12-21T12:28:25.616Z,80
2016-12-21T12:29:24.967Z,80
2016-12-21T12:30:25.817Z,80
2016-12-21T12:31:25.485Z,85
2016-12-21T12:32:25.446Z,80
2016-12-21T12:33:25.709Z,80
2016-12-21T12:34:25.661Z,80
2016-12-21T12:35:25.315Z,80
2016-12-21T12:36:25.611Z,80
2016-12-21T12:37:25.245Z,80
2016-12-21T12:38:24.893Z,80
2016-12-21T12:39:25.462Z,80
2016-12-21T12:40:25.426Z,75
2016-12-21T12:41:25.088Z,75
2016-12-21T12:42:24.750Z,75
2016-12-21T12:43:24.988Z,75
2016-12-21T12:44:24.946Z,80
2016-12-21T12:45:25.204Z,85
2016-12-21T12:46:24.860Z,90
2016-12-21T12:47:24.524Z,95
2016-12-21T12:48:25.082Z,95
2016-12-21T12:49:24.139Z,90
2016-12-21T12:50:24.697Z,85
2016-12-21T12:51:24.353Z,90
2016-12-21T12:52:24.646Z,85
2016-12-21T12:53:24.307Z,85
2016-12-21T12:54:24.534Z,85
2016-12-21T12:55:24.801Z,85
2016-12-21T12:56:23.849Z,80
2016-12-21T12:57:24.710Z,80
2016-12-21T12:58:24.070Z,80
2016-12-21T12:59:24.030Z,75
2016-12-21T13:00:24.293Z,75
2016-12-21T13:01:24.556Z,75
2016-12-21T13:02:24.207Z,75
2016-12-21T13:03:23.859Z,70
2016-12-21T13:04:24.118Z,70
2016-12-21T13:05:24.073Z,70
2016-12-21T13:06:24.362Z,70
2016-12-21T13:07:23.991Z,70
2016-12-21T13:08:23.992Z,70
2016-12-21T13:09:24.220Z,70
2016-12-21T13:10:24.180Z,70
2016-12-21T13:11:24.126Z,70
2016-12-21T13:12:23.788Z,75
2016-12-21T13:13:24.048Z,75
2016-12-21T13:14:23.720Z,75
2016-12-21T13:15:23.661Z,80
2016-12-21T13:16:23.633Z,80
2016-12-21T13:17:23.893Z,75
2016-12-21T13:18:23.239Z,70
2016-12-21T13:19:23.195Z,70
2016-12-21T13:20:23.454Z,70
2016-12-21T13:21:23.410Z,70
2016-12-21T13:22:23.369Z,75
2016-12-21T13:23:23.342Z,80
2016-12-21T13:24:23.293Z,75
2016-12-21T13:25:23.250Z,70
2016-12-21T13:26:23.505Z,70
2016-12-21T13:27:23.167Z,70
2016-12-21T13:28:22.820Z,70
2016-12-21T13:29:23.086Z,75
2016-12-21T13:30:23.041Z,75
2016-12-21T13:31:22.398Z,75
2016-12-21T13:32:22.955Z,70
2016-12-21T13:33:23.228Z,70
2016-12-21T13:34:22.596Z,70
2016-12-21T13:35:22.530Z,65
2016-12-21T13:36:22.792Z,60
2016-12-21T13:37:23.059Z,60
2016-12-21T13:38:23.029Z,55
2016-12-21T13:39:22.366Z,55
2016-12-21T13:40:22.325Z,60
2016-12-21T13:41:22.589Z,60
2016-12-21T13:42:22.551Z,55
2016-12-21T13:43:22.498Z,55
2016-12-21T13:44:22.457Z,60
2016-12-21T13:45:22.723Z,60
2016-12-21T13:46:22.072Z,60
2016-12-21T13:47:22.336Z,60
2016-12-21T13:48:22.289Z,60
2016-12-21T13:49:22.249Z,55
2016-12-21T13:50:22.509Z,55
2016-12-21T13:51:21.866Z,50
2016-12-21T13:52:22.117Z,50
2016-12-21T13:53:22.390Z,50
2016-12-21T13:54:22.033Z,55
2016-12-21T13:55:21.992Z,50
2016-12-21T13:56:21.962Z,50
2016-12-21T13:57:21.912Z,50
2016-12-21T13:58:21.868Z,50
2016-12-21T13:59:22.139Z,50
2016-12-21T14:00:22.089Z,50
2016-12-21T14:01:21.446Z,50
2016-12-21T14:02:21.427Z,45
2016-12-21T14:03:21.354Z,45
2016-12-21T14:04:21.927Z,45
2016-12-21T14:05:21.871Z,45
2016-12-21T14:06:21.839Z,45
2016-12-21T14:07:21.502Z,45
2016-12-21T14:08:21.149Z,45
2016-12-21T14:09:21.726Z,45
2016-12-21T14:10:21.381Z,45
2016-12-21T14:11:21.328Z,45
2016-12-21T14:12:20.985Z,45
2016-12-21T14:13:21.567Z,45
2016-12-21T14:14:21.199Z,45
2016-12-21T14:15:21.464Z,45
2016-12-21T14:16:20.813Z,45
2016-12-21T14:17:21.378Z,45
2016-12-21T14:18:21.027Z,45
2016-12-21T14:19:20.992Z,45
2016-12-21T14:20:20.950Z,45
2016-12-21T14:21:21.210Z,40
2016-12-21T14:22:20.877Z,40
2016-12-21T14:23:20.522Z,40
2016-12-21T14:24:20.481Z,35
2016-12-21T14:25:20.745Z,35
2016-12-21T14:26:21.001Z,35
2016-12-21T14:27:20.653Z,35
2016-12-21T14:28:20.922Z,35
2016-12-21T14:29:20.877Z,30
2016-12-21T14:30:20.845Z,30
2016-12-21T14:31:20.792Z,30